sensor_id;sensor_type;location;lat;lon;timestamp;temperature;humidity
61253;DHT22;47127;47.516;8.596;2023-06-14T00:00:51;16.80;63.70
61253;DHT22;47127;47.516;8.596;2023-06-14T00:03:18;16.80;63.10
61253;DHT22;47127;47.516;8.596;2023-06-14T00:05:47;16.60;62.20
61253;DHT22;47127;47.516;8.596;2023-06-14T00:08:13;16.30;62.90
61253;DHT22;47127;47.516;8.596;2023-06-14T00:10:40;16.10;63.50
61253;DHT22;47127;47.516;8.596;2023-06-14T00:13:07;16.00;62.90
61253;DHT22;47127;47.516;8.596;2023-06-14T00:15:33;16.20;62.10
61253;DHT22;47127;47.516;8.596;2023-06-14T00:17:59;16.40;62.40
61253;DHT22;47127;47.516;8.596;2023-06-14T00:20:27;16.30;65.60
61253;DHT22;47127;47.516;8.596;2023-06-14T00:22:53;16.30;65.50
61253;DHT22;47127;47.516;8.596;2023-06-14T00:25:21;16.40;63.30
61253;DHT22;47127;47.516;8.596;2023-06-14T00:27:47;16.50;62.40
61253;DHT22;47127;47.516;8.596;2023-06-14T00:30:13;16.50;62.10
61253;DHT22;47127;47.516;8.596;2023-06-14T00:32:39;16.50;62.40
61253;DHT22;47127;47.516;8.596;2023-06-14T00:35:04;16.30;62.80
61253;DHT22;47127;47.516;8.596;2023-06-14T00:37:30;16.20;63.60
61253;DHT22;47127;47.516;8.596;2023-06-14T00:39:55;16.10;64.10
61253;DHT22;47127;47.516;8.596;2023-06-14T00:42:25;15.90;64.50
61253;DHT22;47127;47.516;8.596;2023-06-14T00:44:51;15.60;64.90
61253;DHT22;47127;47.516;8.596;2023-06-14T00:47:17;15.40;65.60
61253;DHT22;47127;47.516;8.596;2023-06-14T00:49:44;15.50;65.90
61253;DHT22;47127;47.516;8.596;2023-06-14T00:52:09;15.50;66.50
61253;DHT22;47127;47.516;8.596;2023-06-14T00:54:39;15.20;66.70
61253;DHT22;47127;47.516;8.596;2023-06-14T00:57:05;15.10;67.40
61253;DHT22;47127;47.516;8.596;2023-06-14T00:59:31;15.00;67.50
61253;DHT22;47127;47.516;8.596;2023-06-14T01:01:57;15.00;66.90
61253;DHT22;47127;47.516;8.596;2023-06-14T01:04:22;15.10;66.50
61253;DHT22;47127;47.516;8.596;2023-06-14T01:09:35;15.20;66.30
61253;DHT22;47127;47.516;8.596;2023-06-14T01:13:05;15.30;66.00
61253;DHT22;47127;47.516;8.596;2023-06-14T01:14:59;15.50;66.30
61253;DHT22;47127;47.516;8.596;2023-06-14T01:17:26;15.40;66.40
61253;DHT22;47127;47.516;8.596;2023-06-14T01:19:52;15.40;66.80
61253;DHT22;47127;47.516;8.596;2023-06-14T01:22:26;15.40;66.20
61253;DHT22;47127;47.516;8.596;2023-06-14T01:24:52;15.60;65.60
61253;DHT22;47127;47.516;8.596;2023-06-14T01:27:24;15.50;65.10
61253;DHT22;47127;47.516;8.596;2023-06-14T01:29:54;15.70;65.20
61253;DHT22;47127;47.516;8.596;2023-06-14T01:32:23;15.60;65.10
61253;DHT22;47127;47.516;8.596;2023-06-14T01:34:49;15.50;66.00
61253;DHT22;47127;47.516;8.596;2023-06-14T01:37:16;15.20;66.50
61253;DHT22;47127;47.516;8.596;2023-06-14T01:39:43;15.00;67.10
61253;DHT22;47127;47.516;8.596;2023-06-14T01:42:09;14.80;67.20
61253;DHT22;47127;47.516;8.596;2023-06-14T01:44:37;14.90;67.20
61253;DHT22;47127;47.516;8.596;2023-06-14T01:47:03;14.70;67.20
61253;DHT22;47127;47.516;8.596;2023-06-14T01:49:28;14.50;68.20
61253;DHT22;47127;47.516;8.596;2023-06-14T01:51:54;14.40;68.60
61253;DHT22;47127;47.516;8.596;2023-06-14T01:54:19;14.30;68.60
61253;DHT22;47127;47.516;8.596;2023-06-14T01:56:47;14.40;69.20
61253;DHT22;47127;47.516;8.596;2023-06-14T01:59:12;14.20;69.60
61253;DHT22;47127;47.516;8.596;2023-06-14T02:01:38;14.20;70.20
61253;DHT22;47127;47.516;8.596;2023-06-14T02:04:03;14.10;69.90
61253;DHT22;47127;47.516;8.596;2023-06-14T02:06:29;14.30;70.00
61253;DHT22;47127;47.516;8.596;2023-06-14T02:08:54;14.30;69.70
61253;DHT22;47127;47.516;8.596;2023-06-14T02:11:20;14.40;69.30
61253;DHT22;47127;47.516;8.596;2023-06-14T02:13:45;14.60;69.00
61253;DHT22;47127;47.516;8.596;2023-06-14T02:16:11;14.80;68.80
61253;DHT22;47127;47.516;8.596;2023-06-14T02:18:36;14.90;67.90
61253;DHT22;47127;47.516;8.596;2023-06-14T02:21:02;14.90;67.70
61253;DHT22;47127;47.516;8.596;2023-06-14T02:23:27;14.90;67.70
61253;DHT22;47127;47.516;8.596;2023-06-14T02:25:53;14.80;68.60
61253;DHT22;47127;47.516;8.596;2023-06-14T02:28:18;14.70;69.30
61253;DHT22;47127;47.516;8.596;2023-06-14T02:30:44;14.50;70.50
61253;DHT22;47127;47.516;8.596;2023-06-14T02:33:10;14.20;71.40
61253;DHT22;47127;47.516;8.596;2023-06-14T02:35:38;14.00;72.00
61253;DHT22;47127;47.516;8.596;2023-06-14T02:38:03;13.90;72.70
61253;DHT22;47127;47.516;8.596;2023-06-14T02:40:29;13.90;72.90
61253;DHT22;47127;47.516;8.596;2023-06-14T02:42:55;13.90;72.90
61253;DHT22;47127;47.516;8.596;2023-06-14T02:45:22;13.90;72.40
61253;DHT22;47127;47.516;8.596;2023-06-14T02:47:47;13.60;72.60
61253;DHT22;47127;47.516;8.596;2023-06-14T02:50:13;13.50;73.40
61253;DHT22;47127;47.516;8.596;2023-06-14T02:52:39;13.60;73.60
61253;DHT22;47127;47.516;8.596;2023-06-14T02:55:07;13.50;73.30
61253;DHT22;47127;47.516;8.596;2023-06-14T02:57:33;13.60;73.60
61253;DHT22;47127;47.516;8.596;2023-06-14T02:59:59;13.70;73.80
61253;DHT22;47127;47.516;8.596;2023-06-14T03:02:24;13.80;73.10
61253;DHT22;47127;47.516;8.596;2023-06-14T03:04:50;13.80;72.70
61253;DHT22;47127;47.516;8.596;2023-06-14T03:07:15;13.60;73.00
61253;DHT22;47127;47.516;8.596;2023-06-14T03:09:45;13.40;73.40
61253;DHT22;47127;47.516;8.596;2023-06-14T03:12:10;13.30;73.70
61253;DHT22;47127;47.516;8.596;2023-06-14T03:14:36;13.30;73.80
61253;DHT22;47127;47.516;8.596;2023-06-14T03:17:02;13.20;74.40
61253;DHT22;47127;47.516;8.596;2023-06-14T03:19:30;13.20;74.60
61253;DHT22;47127;47.516;8.596;2023-06-14T03:21:55;13.30;74.70
61253;DHT22;47127;47.516;8.596;2023-06-14T03:24:25;13.40;74.40
61253;DHT22;47127;47.516;8.596;2023-06-14T03:26:53;13.50;74.10
61253;DHT22;47127;47.516;8.596;2023-06-14T03:29:18;13.60;74.40
61253;DHT22;47127;47.516;8.596;2023-06-14T03:31:57;13.60;74.40
61253;DHT22;47127;47.516;8.596;2023-06-14T03:34:23;13.60;74.30
61253;DHT22;47127;47.516;8.596;2023-06-14T03:36:49;13.60;74.40
61253;DHT22;47127;47.516;8.596;2023-06-14T03:39:14;13.40;74.20
61253;DHT22;47127;47.516;8.596;2023-06-14T03:41:40;13.30;74.10
61253;DHT22;47127;47.516;8.596;2023-06-14T03:44:06;13.30;74.50
61253;DHT22;47127;47.516;8.596;2023-06-14T03:46:31;13.20;74.80
61253;DHT22;47127;47.516;8.596;2023-06-14T03:48:57;13.20;75.20
61253;DHT22;47127;47.516;8.596;2023-06-14T03:51:22;13.10;75.50
61253;DHT22;47127;47.516;8.596;2023-06-14T03:53:48;13.10;75.30
61253;DHT22;47127;47.516;8.596;2023-06-14T03:56:13;13.20;74.90
61253;DHT22;47127;47.516;8.596;2023-06-14T03:58:39;13.10;75.50
61253;DHT22;47127;47.516;8.596;2023-06-14T04:01:04;13.20;75.50
61253;DHT22;47127;47.516;8.596;2023-06-14T04:03:32;13.20;75.50
61253;DHT22;47127;47.516;8.596;2023-06-14T04:05:58;13.40;74.80
61253;DHT22;47127;47.516;8.596;2023-06-14T04:08:25;13.50;74.40
61253;DHT22;47127;47.516;8.596;2023-06-14T04:10:50;13.50;74.10
61253;DHT22;47127;47.516;8.596;2023-06-14T04:13:16;13.70;74.90
61253;DHT22;47127;47.516;8.596;2023-06-14T04:15:42;13.60;74.70
61253;DHT22;47127;47.516;8.596;2023-06-14T04:18:09;13.80;74.40
61253;DHT22;47127;47.516;8.596;2023-06-14T04:20:34;13.80;75.10
61253;DHT22;47127;47.516;8.596;2023-06-14T04:23:15;14.00;74.80
61253;DHT22;47127;47.516;8.596;2023-06-14T04:25:43;14.10;74.70
61253;DHT22;47127;47.516;8.596;2023-06-14T04:28:11;14.20;74.50
61253;DHT22;47127;47.516;8.596;2023-06-14T04:30:37;14.10;75.40
61253;DHT22;47127;47.516;8.596;2023-06-14T04:33:06;14.10;74.60
61253;DHT22;47127;47.516;8.596;2023-06-14T04:35:32;14.10;74.70
61253;DHT22;47127;47.516;8.596;2023-06-14T04:37:58;14.10;75.10
61253;DHT22;47127;47.516;8.596;2023-06-14T04:40:24;14.10;75.10
61253;DHT22;47127;47.516;8.596;2023-06-14T04:42:50;14.20;75.80
61253;DHT22;47127;47.516;8.596;2023-06-14T04:45:16;14.30;75.40
61253;DHT22;47127;47.516;8.596;2023-06-14T04:47:42;14.30;76.20
61253;DHT22;47127;47.516;8.596;2023-06-14T04:50:10;14.30;77.70
61253;DHT22;47127;47.516;8.596;2023-06-14T04:52:36;14.30;78.50
61253;DHT22;47127;47.516;8.596;2023-06-14T04:55:03;14.20;78.20
61253;DHT22;47127;47.516;8.596;2023-06-14T04:57:28;14.20;78.90
61253;DHT22;47127;47.516;8.596;2023-06-14T04:59:54;14.10;77.90
61253;DHT22;47127;47.516;8.596;2023-06-14T05:02:21;14.20;79.50
61253;DHT22;47127;47.516;8.596;2023-06-14T05:04:48;14.20;79.50
61253;DHT22;47127;47.516;8.596;2023-06-14T05:07:13;14.20;79.40
61253;DHT22;47127;47.516;8.596;2023-06-14T05:09:39;14.20;80.90
61253;DHT22;47127;47.516;8.596;2023-06-14T05:12:05;14.30;80.40
61253;DHT22;47127;47.516;8.596;2023-06-14T05:14:33;14.30;80.40
61253;DHT22;47127;47.516;8.596;2023-06-14T05:16:59;14.40;82.50
61253;DHT22;47127;47.516;8.596;2023-06-14T05:19:25;14.40;82.30
61253;DHT22;47127;47.516;8.596;2023-06-14T05:21:50;14.50;79.70
61253;DHT22;47127;47.516;8.596;2023-06-14T05:24:16;14.50;80.70
61253;DHT22;47127;47.516;8.596;2023-06-14T05:26:43;14.50;79.80
61253;DHT22;47127;47.516;8.596;2023-06-14T05:29:08;14.70;79.50
61253;DHT22;47127;47.516;8.596;2023-06-14T05:31:34;14.80;80.40
61253;DHT22;47127;47.516;8.596;2023-06-14T05:34:00;14.90;79.90
61253;DHT22;47127;47.516;8.596;2023-06-14T05:36:25;15.10;79.40
61253;DHT22;47127;47.516;8.596;2023-06-14T05:38:54;15.20;80.00
61253;DHT22;47127;47.516;8.596;2023-06-14T05:41:25;15.30;79.90
61253;DHT22;47127;47.516;8.596;2023-06-14T05:43:52;15.50;80.40
61253;DHT22;47127;47.516;8.596;2023-06-14T05:46:17;15.60;79.60
61253;DHT22;47127;47.516;8.596;2023-06-14T05:48:47;15.80;78.70
61253;DHT22;47127;47.516;8.596;2023-06-14T05:51:13;15.90;77.90
61253;DHT22;47127;47.516;8.596;2023-06-14T05:53:41;16.00;77.70
61253;DHT22;47127;47.516;8.596;2023-06-14T05:56:07;16.20;77.10
61253;DHT22;47127;47.516;8.596;2023-06-14T05:58:32;16.30;76.80
61253;DHT22;47127;47.516;8.596;2023-06-14T06:00:58;16.40;76.20
61253;DHT22;47127;47.516;8.596;2023-06-14T06:03:23;16.50;75.30
61253;DHT22;47127;47.516;8.596;2023-06-14T06:05:49;16.60;76.10
61253;DHT22;47127;47.516;8.596;2023-06-14T06:08:14;16.70;75.70
61253;DHT22;47127;47.516;8.596;2023-06-14T06:10:42;16.80;75.90
61253;DHT22;47127;47.516;8.596;2023-06-14T06:13:07;16.90;74.60
61253;DHT22;47127;47.516;8.596;2023-06-14T06:15:33;17.10;74.50
61253;DHT22;47127;47.516;8.596;2023-06-14T06:17:58;17.10;74.40
61253;DHT22;47127;47.516;8.596;2023-06-14T06:20:24;17.30;74.20
61253;DHT22;47127;47.516;8.596;2023-06-14T06:22:53;17.40;73.50
61253;DHT22;47127;47.516;8.596;2023-06-14T06:25:19;17.50;73.20
61253;DHT22;47127;47.516;8.596;2023-06-14T06:27:45;17.60;72.30
61253;DHT22;47127;47.516;8.596;2023-06-14T06:30:11;17.70;71.70
61253;DHT22;47127;47.516;8.596;2023-06-14T06:32:37;17.80;70.60
61253;DHT22;47127;47.516;8.596;2023-06-14T06:35:03;17.90;69.60
61253;DHT22;47127;47.516;8.596;2023-06-14T06:37:31;18.00;70.00
61253;DHT22;47127;47.516;8.596;2023-06-14T06:39:57;18.20;68.90
61253;DHT22;47127;47.516;8.596;2023-06-14T06:42:22;18.20;68.70
61253;DHT22;47127;47.516;8.596;2023-06-14T06:44:48;18.20;67.70
61253;DHT22;47127;47.516;8.596;2023-06-14T06:47:13;18.20;67.20
61253;DHT22;47127;47.516;8.596;2023-06-14T06:49:39;18.40;66.90
61253;DHT22;47127;47.516;8.596;2023-06-14T06:52:06;18.50;66.20
61253;DHT22;47127;47.516;8.596;2023-06-14T06:54:33;18.60;66.10
61253;DHT22;47127;47.516;8.596;2023-06-14T06:56:58;18.70;64.30
61253;DHT22;47127;47.516;8.596;2023-06-14T06:59:24;18.80;63.60
61253;DHT22;47127;47.516;8.596;2023-06-14T07:01:50;19.00;62.20
61253;DHT22;47127;47.516;8.596;2023-06-14T07:04:15;19.10;62.50
61253;DHT22;47127;47.516;8.596;2023-06-14T07:06:42;19.20;62.10
61253;DHT22;47127;47.516;8.596;2023-06-14T07:09:08;19.40;61.60
61253;DHT22;47127;47.516;8.596;2023-06-14T07:11:38;19.30;62.50
61253;DHT22;47127;47.516;8.596;2023-06-14T07:14:04;19.40;62.20
61253;DHT22;47127;47.516;8.596;2023-06-14T07:16:30;19.40;61.70
61253;DHT22;47127;47.516;8.596;2023-06-14T07:18:55;19.40;61.80
61253;DHT22;47127;47.516;8.596;2023-06-14T07:21:21;19.60;61.40
61253;DHT22;47127;47.516;8.596;2023-06-14T07:23:47;19.70;61.30
61253;DHT22;47127;47.516;8.596;2023-06-14T07:26:12;19.60;61.80
61253;DHT22;47127;47.516;8.596;2023-06-14T07:28:38;19.70;61.20
61253;DHT22;47127;47.516;8.596;2023-06-14T07:31:03;19.80;61.10
61253;DHT22;47127;47.516;8.596;2023-06-14T07:33:29;20.00;60.40
61253;DHT22;47127;47.516;8.596;2023-06-14T07:35:55;20.00;60.70
61253;DHT22;47127;47.516;8.596;2023-06-14T07:38:20;20.10;60.80
61253;DHT22;47127;47.516;8.596;2023-06-14T07:40:46;20.10;61.00
61253;DHT22;47127;47.516;8.596;2023-06-14T07:43:11;20.10;61.50
61253;DHT22;47127;47.516;8.596;2023-06-14T07:45:37;20.20;60.80
61253;DHT22;47127;47.516;8.596;2023-06-14T07:48:03;20.20;60.10
61253;DHT22;47127;47.516;8.596;2023-06-14T07:50:29;20.20;60.50
61253;DHT22;47127;47.516;8.596;2023-06-14T07:52:54;20.20;60.60
61253;DHT22;47127;47.516;8.596;2023-06-14T07:55:20;20.30;59.50
61253;DHT22;47127;47.516;8.596;2023-06-14T07:57:46;20.30;60.10
61253;DHT22;47127;47.516;8.596;2023-06-14T08:00:12;20.40;59.80
61253;DHT22;47127;47.516;8.596;2023-06-14T08:02:41;20.60;60.00
61253;DHT22;47127;47.516;8.596;2023-06-14T08:05:09;20.80;60.30
61253;DHT22;47127;47.516;8.596;2023-06-14T08:07:35;20.90;58.80
61253;DHT22;47127;47.516;8.596;2023-06-14T08:10:00;21.00;57.90
61253;DHT22;47127;47.516;8.596;2023-06-14T08:12:26;21.10;58.00
61253;DHT22;47127;47.516;8.596;2023-06-14T08:14:52;21.10;57.50
61253;DHT22;47127;47.516;8.596;2023-06-14T08:17:17;21.20;57.70
61253;DHT22;47127;47.516;8.596;2023-06-14T08:19:43;21.20;57.80
61253;DHT22;47127;47.516;8.596;2023-06-14T08:22:08;21.20;57.70
61253;DHT22;47127;47.516;8.596;2023-06-14T08:24:36;21.10;57.20
61253;DHT22;47127;47.516;8.596;2023-06-14T08:27:02;21.30;57.30
61253;DHT22;47127;47.516;8.596;2023-06-14T08:29:28;21.30;57.70
61253;DHT22;47127;47.516;8.596;2023-06-14T08:31:57;21.60;55.80
61253;DHT22;47127;47.516;8.596;2023-06-14T08:34:23;21.80;56.70
61253;DHT22;47127;47.516;8.596;2023-06-14T08:36:52;21.80;56.40
61253;DHT22;47127;47.516;8.596;2023-06-14T08:39:18;21.70;56.00
61253;DHT22;47127;47.516;8.596;2023-06-14T08:41:47;21.80;56.20
61253;DHT22;47127;47.516;8.596;2023-06-14T08:44:16;22.00;56.70
61253;DHT22;47127;47.516;8.596;2023-06-14T08:46:42;22.10;57.40
61253;DHT22;47127;47.516;8.596;2023-06-14T08:49:11;22.30;55.60
61253;DHT22;47127;47.516;8.596;2023-06-14T08:51:37;22.50;55.30
61253;DHT22;47127;47.516;8.596;2023-06-14T08:54:06;22.50;54.80
61253;DHT22;47127;47.516;8.596;2023-06-14T08:56:32;22.50;54.70
61253;DHT22;47127;47.516;8.596;2023-06-14T08:59:00;22.60;55.20
61253;DHT22;47127;47.516;8.596;2023-06-14T09:01:36;22.60;55.40
61253;DHT22;47127;47.516;8.596;2023-06-14T09:04:02;22.70;55.40
61253;DHT22;47127;47.516;8.596;2023-06-14T09:06:28;22.80;54.80
61253;DHT22;47127;47.516;8.596;2023-06-14T09:08:55;22.90;53.70
61253;DHT22;47127;47.516;8.596;2023-06-14T09:11:22;22.90;53.00
61253;DHT22;47127;47.516;8.596;2023-06-14T09:13:49;23.00;51.90
61253;DHT22;47127;47.516;8.596;2023-06-14T09:16:15;23.00;51.80
61253;DHT22;47127;47.516;8.596;2023-06-14T09:18:43;22.90;52.10
61253;DHT22;47127;47.516;8.596;2023-06-14T09:21:11;23.00;52.40
61253;DHT22;47127;47.516;8.596;2023-06-14T09:23:38;23.00;52.90
61253;DHT22;47127;47.516;8.596;2023-06-14T09:26:15;23.10;52.00
61253;DHT22;47127;47.516;8.596;2023-06-14T09:28:44;23.40;51.90
61253;DHT22;47127;47.516;8.596;2023-06-14T09:31:16;23.60;51.30
61253;DHT22;47127;47.516;8.596;2023-06-14T09:33:45;23.60;50.90
61253;DHT22;47127;47.516;8.596;2023-06-14T09:36:16;23.50;50.90
61253;DHT22;47127;47.516;8.596;2023-06-14T09:44:00;23.50;51.20
61253;DHT22;47127;47.516;8.596;2023-06-14T09:46:29;23.70;50.80
61253;DHT22;47127;47.516;8.596;2023-06-14T09:48:56;23.80;51.10
61253;DHT22;47127;47.516;8.596;2023-06-14T09:51:23;23.90;50.80
61253;DHT22;47127;47.516;8.596;2023-06-14T09:53:49;24.10;50.80
61253;DHT22;47127;47.516;8.596;2023-06-14T09:56:28;24.30;51.50
61253;DHT22;47127;47.516;8.596;2023-06-14T09:58:56;24.30;51.30
61253;DHT22;47127;47.516;8.596;2023-06-14T10:01:27;24.40;50.20
61253;DHT22;47127;47.516;8.596;2023-06-14T10:03:58;24.40;50.50
61253;DHT22;47127;47.516;8.596;2023-06-14T10:06:26;24.40;50.70
61253;DHT22;47127;47.516;8.596;2023-06-14T10:08:57;24.60;50.20
61253;DHT22;47127;47.516;8.596;2023-06-14T10:11:23;24.80;50.10
61253;DHT22;47127;47.516;8.596;2023-06-14T10:13:50;24.80;48.90
61253;DHT22;47127;47.516;8.596;2023-06-14T10:16:32;24.80;49.70
61253;DHT22;47127;47.516;8.596;2023-06-14T10:19:18;24.50;49.10
61253;DHT22;47127;47.516;8.596;2023-06-14T10:21:58;24.50;49.30
61253;DHT22;47127;47.516;8.596;2023-06-14T10:24:46;24.50;48.40
61253;DHT22;47127;47.516;8.596;2023-06-14T10:27:14;24.60;48.70
61253;DHT22;47127;47.516;8.596;2023-06-14T10:32:26;24.70;48.00
61253;DHT22;47127;47.516;8.596;2023-06-14T10:34:55;24.70;48.40
61253;DHT22;47127;47.516;8.596;2023-06-14T10:37:21;24.80;48.00
61253;DHT22;47127;47.516;8.596;2023-06-14T10:39:47;24.90;48.00
61253;DHT22;47127;47.516;8.596;2023-06-14T10:42:14;24.80;48.20
61253;DHT22;47127;47.516;8.596;2023-06-14T10:44:55;25.00;47.60
61253;DHT22;47127;47.516;8.596;2023-06-14T10:47:33;25.10;47.50
61253;DHT22;47127;47.516;8.596;2023-06-14T10:50:11;25.30;47.00
61253;DHT22;47127;47.516;8.596;2023-06-14T10:52:43;25.40;46.80
61253;DHT22;47127;47.516;8.596;2023-06-14T10:57:52;25.50;46.60
61253;DHT22;47127;47.516;8.596;2023-06-14T11:00:28;25.40;46.20
61253;DHT22;47127;47.516;8.596;2023-06-14T11:03:23;25.60;46.80
61253;DHT22;47127;47.516;8.596;2023-06-14T11:05:56;25.60;46.40
61253;DHT22;47127;47.516;8.596;2023-06-14T11:11:16;25.70;46.10
61253;DHT22;47127;47.516;8.596;2023-06-14T11:13:44;25.80;45.80
61253;DHT22;47127;47.516;8.596;2023-06-14T11:16:15;25.90;45.90
61253;DHT22;47127;47.516;8.596;2023-06-14T11:18:42;26.00;46.30
61253;DHT22;47127;47.516;8.596;2023-06-14T11:21:26;26.20;46.30
61253;DHT22;47127;47.516;8.596;2023-06-14T11:24:10;26.40;46.10
61253;DHT22;47127;47.516;8.596;2023-06-14T11:26:37;26.60;45.90
61253;DHT22;47127;47.516;8.596;2023-06-14T11:29:03;26.90;45.20
61253;DHT22;47127;47.516;8.596;2023-06-14T11:31:29;26.90;45.20
61253;DHT22;47127;47.516;8.596;2023-06-14T11:33:55;26.80;44.60
61253;DHT22;47127;47.516;8.596;2023-06-14T11:36:26;26.90;44.70
61253;DHT22;47127;47.516;8.596;2023-06-14T11:39:02;26.90;45.80
61253;DHT22;47127;47.516;8.596;2023-06-14T11:41:40;26.80;45.80
61253;DHT22;47127;47.516;8.596;2023-06-14T11:44:06;27.10;45.50
61253;DHT22;47127;47.516;8.596;2023-06-14T11:46:32;27.20;44.60
61253;DHT22;47127;47.516;8.596;2023-06-14T11:48:58;27.50;45.20
61253;DHT22;47127;47.516;8.596;2023-06-14T11:51:24;27.60;44.40
61253;DHT22;47127;47.516;8.596;2023-06-14T11:53:50;27.80;44.20
61253;DHT22;47127;47.516;8.596;2023-06-14T11:56:16;27.80;43.80
61253;DHT22;47127;47.516;8.596;2023-06-14T11:58:45;27.40;44.50
61253;DHT22;47127;47.516;8.596;2023-06-14T12:01:16;27.50;44.40
61253;DHT22;47127;47.516;8.596;2023-06-14T12:03:47;27.90;44.30
61253;DHT22;47127;47.516;8.596;2023-06-14T12:06:13;27.70;45.50
61253;DHT22;47127;47.516;8.596;2023-06-14T12:08:40;27.70;45.60
61253;DHT22;47127;47.516;8.596;2023-06-14T12:11:14;27.70;45.50
61253;DHT22;47127;47.516;8.596;2023-06-14T12:13:43;27.70;45.30
61253;DHT22;47127;47.516;8.596;2023-06-14T12:16:11;27.60;44.80
61253;DHT22;47127;47.516;8.596;2023-06-14T12:18:39;27.70;44.60
61253;DHT22;47127;47.516;8.596;2023-06-14T12:21:06;27.70;45.00
61253;DHT22;47127;47.516;8.596;2023-06-14T12:23:50;27.80;44.50
61253;DHT22;47127;47.516;8.596;2023-06-14T12:26:18;27.70;44.30
61253;DHT22;47127;47.516;8.596;2023-06-14T12:28:48;27.80;45.10
61253;DHT22;47127;47.516;8.596;2023-06-14T12:31:15;28.00;44.30
61253;DHT22;47127;47.516;8.596;2023-06-14T12:33:43;28.50;44.30
61253;DHT22;47127;47.516;8.596;2023-06-14T12:36:09;28.70;44.30
61253;DHT22;47127;47.516;8.596;2023-06-14T12:38:36;28.70;43.90
61253;DHT22;47127;47.516;8.596;2023-06-14T12:41:02;28.80;44.60
61253;DHT22;47127;47.516;8.596;2023-06-14T12:43:27;28.80;44.20
61253;DHT22;47127;47.516;8.596;2023-06-14T12:45:53;28.70;44.20
61253;DHT22;47127;47.516;8.596;2023-06-14T12:48:19;28.60;44.40
61253;DHT22;47127;47.516;8.596;2023-06-14T12:50:45;28.50;44.50
61253;DHT22;47127;47.516;8.596;2023-06-14T12:53:10;28.30;43.70
61253;DHT22;47127;47.516;8.596;2023-06-14T12:55:36;28.20;43.80
61253;DHT22;47127;47.516;8.596;2023-06-14T12:58:01;28.10;44.50
61253;DHT22;47127;47.516;8.596;2023-06-14T13:00:27;28.10;44.00
61253;DHT22;47127;47.516;8.596;2023-06-14T13:02:53;28.40;45.30
61253;DHT22;47127;47.516;8.596;2023-06-14T13:05:18;28.60;44.40
61253;DHT22;47127;47.516;8.596;2023-06-14T13:07:44;28.90;44.50
61253;DHT22;47127;47.516;8.596;2023-06-14T13:10:10;28.80;45.00
61253;DHT22;47127;47.516;8.596;2023-06-14T13:12:36;29.10;44.10
61253;DHT22;47127;47.516;8.596;2023-06-14T13:15:02;29.40;44.60
61253;DHT22;47127;47.516;8.596;2023-06-14T13:17:27;29.40;44.10
61253;DHT22;47127;47.516;8.596;2023-06-14T13:19:53;29.30;43.80
61253;DHT22;47127;47.516;8.596;2023-06-14T13:22:19;29.40;43.40
61253;DHT22;47127;47.516;8.596;2023-06-14T13:24:44;29.30;43.10
61253;DHT22;47127;47.516;8.596;2023-06-14T13:27:10;29.00;43.00
61253;DHT22;47127;47.516;8.596;2023-06-14T13:29:36;29.10;43.20
61253;DHT22;47127;47.516;8.596;2023-06-14T13:32:03;29.30;43.60
61253;DHT22;47127;47.516;8.596;2023-06-14T13:34:29;29.20;43.90
61253;DHT22;47127;47.516;8.596;2023-06-14T13:36:55;29.40;43.80
61253;DHT22;47127;47.516;8.596;2023-06-14T13:39:20;29.30;43.60
61253;DHT22;47127;47.516;8.596;2023-06-14T13:41:46;29.50;43.30
61253;DHT22;47127;47.516;8.596;2023-06-14T13:44:12;29.80;43.10
61253;DHT22;47127;47.516;8.596;2023-06-14T13:46:39;29.80;44.20
61253;DHT22;47127;47.516;8.596;2023-06-14T13:49:05;29.60;43.90
61253;DHT22;47127;47.516;8.596;2023-06-14T13:51:31;29.80;43.20
61253;DHT22;47127;47.516;8.596;2023-06-14T13:53:58;29.60;43.20
61253;DHT22;47127;47.516;8.596;2023-06-14T13:56:24;29.80;44.10
61253;DHT22;47127;47.516;8.596;2023-06-14T13:58:50;29.80;43.70
61253;DHT22;47127;47.516;8.596;2023-06-14T14:01:16;29.90;42.70
61253;DHT22;47127;47.516;8.596;2023-06-14T14:03:43;29.60;43.20
61253;DHT22;47127;47.516;8.596;2023-06-14T14:06:10;29.70;43.30
61253;DHT22;47127;47.516;8.596;2023-06-14T14:08:36;30.30;42.90
61253;DHT22;47127;47.516;8.596;2023-06-14T14:11:02;30.30;43.30
61253;DHT22;47127;47.516;8.596;2023-06-14T14:13:27;30.20;43.80
61253;DHT22;47127;47.516;8.596;2023-06-14T14:15:53;30.10;43.30
61253;DHT22;47127;47.516;8.596;2023-06-14T14:18:19;30.10;43.50
61253;DHT22;47127;47.516;8.596;2023-06-14T14:20:46;30.30;43.30
61253;DHT22;47127;47.516;8.596;2023-06-14T14:23:12;30.30;43.10
61253;DHT22;47127;47.516;8.596;2023-06-14T14:25:37;30.40;43.30
61253;DHT22;47127;47.516;8.596;2023-06-14T14:28:03;30.50;42.40
61253;DHT22;47127;47.516;8.596;2023-06-14T14:30:29;30.10;42.70
61253;DHT22;47127;47.516;8.596;2023-06-14T14:32:55;30.20;43.00
61253;DHT22;47127;47.516;8.596;2023-06-14T14:35:21;30.20;43.10
61253;DHT22;47127;47.516;8.596;2023-06-14T14:37:48;30.60;42.90
61253;DHT22;47127;47.516;8.596;2023-06-14T14:40:13;30.50;42.90
61253;DHT22;47127;47.516;8.596;2023-06-14T14:42:39;31.00;42.50
61253;DHT22;47127;47.516;8.596;2023-06-14T14:45:05;30.90;42.70
61253;DHT22;47127;47.516;8.596;2023-06-14T14:47:31;31.20;42.30
61253;DHT22;47127;47.516;8.596;2023-06-14T14:49:57;31.20;42.30
61253;DHT22;47127;47.516;8.596;2023-06-14T14:52:22;31.10;42.10
61253;DHT22;47127;47.516;8.596;2023-06-14T14:54:48;31.10;42.00
61253;DHT22;47127;47.516;8.596;2023-06-14T14:57:13;30.50;42.40
61253;DHT22;47127;47.516;8.596;2023-06-14T14:59:39;30.60;43.20
61253;DHT22;47127;47.516;8.596;2023-06-14T15:02:05;30.80;43.40
61253;DHT22;47127;47.516;8.596;2023-06-14T15:04:30;30.80;42.70
61253;DHT22;47127;47.516;8.596;2023-06-14T15:06:57;30.60;42.80
61253;DHT22;47127;47.516;8.596;2023-06-14T15:09:22;30.80;42.30
61253;DHT22;47127;47.516;8.596;2023-06-14T15:11:48;30.90;42.60
61253;DHT22;47127;47.516;8.596;2023-06-14T15:14:13;30.90;42.90
61253;DHT22;47127;47.516;8.596;2023-06-14T15:16:40;31.10;42.50
61253;DHT22;47127;47.516;8.596;2023-06-14T15:19:06;31.10;41.80
61253;DHT22;47127;47.516;8.596;2023-06-14T15:21:31;31.20;42.70
61253;DHT22;47127;47.516;8.596;2023-06-14T15:23:57;31.10;42.60
61253;DHT22;47127;47.516;8.596;2023-06-14T15:26:23;30.90;42.40
61253;DHT22;47127;47.516;8.596;2023-06-14T15:28:50;31.30;43.00
61253;DHT22;47127;47.516;8.596;2023-06-14T15:31:15;31.80;42.80
61253;DHT22;47127;47.516;8.596;2023-06-14T15:33:41;31.60;42.60
61253;DHT22;47127;47.516;8.596;2023-06-14T15:36:06;31.40;42.20
61253;DHT22;47127;47.516;8.596;2023-06-14T15:38:34;30.90;41.80
61253;DHT22;47127;47.516;8.596;2023-06-14T15:41:00;31.00;42.60
61253;DHT22;47127;47.516;8.596;2023-06-14T15:43:26;31.00;42.10
61253;DHT22;47127;47.516;8.596;2023-06-14T15:45:51;31.20;42.00